createdAt,value
2023-05-15T00:00:36.100Z,0.50
2023-05-15T00:01:37.146Z,0.51
2023-05-15T00:02:36.292Z,0.51
2023-05-15T00:03:37.366Z,0.51
2023-05-15T00:04:36.275Z,0.51
2023-05-15T00:05:37.288Z,0.51
2023-05-15T00:06:36.312Z,0.51
2023-05-15T00:07:36.357Z,0.51
2023-05-15T00:08:37.379Z,0.50
2023-05-15T00:09:37.433Z,0.51
2023-05-15T00:10:38.303Z,0.51
2023-05-15T00:11:37.443Z,0.52
2023-05-15T00:12:36.428Z,0.52
2023-05-15T00:13:37.431Z,0.51
2023-05-15T00:14:36.433Z,0.51
2023-05-15T00:15:36.406Z,0.51
2023-05-15T00:16:36.479Z,0.51
2023-05-15T00:17:36.471Z,0.51
2023-05-15T00:18:37.403Z,0.50
2023-05-15T00:19:37.398Z,0.51
2023-05-15T00:20:37.390Z,0.50
2023-05-15T00:21:37.358Z,0.51
2023-05-15T00:22:36.343Z,0.50
2023-05-15T00:23:36.349Z,0.51
2023-05-15T00:24:36.330Z,0.50
2023-05-15T00:25:37.366Z,0.51
2023-05-15T00:26:37.320Z,0.51
2023-05-15T00:27:36.330Z,0.50
2023-05-15T00:28:36.339Z,0.50
2023-05-15T00:29:36.319Z,0.51
2023-05-15T00:30:37.302Z,0.51
2023-05-15T00:31:37.356Z,0.51
2023-05-15T00:32:37.314Z,0.50
2023-05-15T00:33:37.288Z,0.50
2023-05-15T00:34:36.269Z,0.50
2023-05-15T00:35:37.306Z,0.51
2023-05-15T00:36:36.267Z,0.50
2023-05-15T00:37:37.253Z,0.50
2023-05-15T00:38:37.251Z,0.51
2023-05-15T00:39:37.259Z,0.51
2023-05-15T00:40:37.248Z,0.50
2023-05-15T00:41:37.262Z,0.51
2023-05-15T00:42:36.214Z,0.51
2023-05-15T00:43:36.240Z,0.51
2023-05-15T00:44:37.280Z,0.50
2023-05-15T00:45:36.340Z,0.50
2023-05-15T00:46:37.426Z,0.50
2023-05-15T00:47:37.459Z,0.50
2023-05-15T00:48:37.516Z,0.51
2023-05-15T00:49:37.495Z,0.51
2023-05-15T00:50:37.539Z,0.52
2023-05-15T00:51:36.594Z,0.51
2023-05-15T00:52:36.614Z,0.51
2023-05-15T00:53:36.708Z,0.51
2023-05-15T00:54:37.704Z,0.50
2023-05-15T00:55:37.743Z,0.51
2023-05-15T00:56:36.786Z,0.51
2023-05-15T00:57:36.859Z,0.50
2023-05-15T00:58:36.867Z,0.51
2023-05-15T00:59:37.917Z,0.51
2023-05-15T01:00:37.961Z,0.51
2023-05-15T01:01:38.021Z,0.51
2023-05-15T01:02:38.180Z,0.50
2023-05-15T01:03:37.125Z,0.50
2023-05-15T01:04:37.118Z,0.51
2023-05-15T01:05:37.133Z,0.51
2023-05-15T01:06:38.187Z,0.51
2023-05-15T01:07:38.224Z,0.51
2023-05-15T01:08:37.273Z,0.50
2023-05-15T01:09:37.323Z,0.50
2023-05-15T01:10:37.399Z,0.50
2023-05-15T01:11:37.400Z,0.50
2023-05-15T01:12:37.436Z,0.51
2023-05-15T01:13:38.520Z,0.50
2023-05-15T01:14:38.524Z,0.51
2023-05-15T01:15:38.882Z,0.51
2023-05-15T01:16:38.645Z,0.50
2023-05-15T01:17:37.716Z,0.51
2023-05-15T01:18:37.895Z,0.50
2023-05-15T01:19:37.862Z,0.50
2023-05-15T01:20:37.808Z,0.50
2023-05-15T01:21:38.825Z,0.50
2023-05-15T01:22:37.869Z,0.51
2023-05-15T01:23:38.904Z,0.50
2023-05-15T01:24:38.950Z,0.50
2023-05-15T01:25:38.003Z,0.51
2023-05-15T01:26:39.039Z,0.51
2023-05-15T01:27:38.055Z,0.50
2023-05-15T01:28:38.106Z,0.50
2023-05-15T01:29:38.176Z,0.51
2023-05-15T01:30:38.189Z,0.51
2023-05-15T01:31:38.255Z,0.51
2023-05-15T01:32:39.319Z,0.51
2023-05-15T01:33:39.328Z,0.51
2023-05-15T01:34:39.355Z,0.51
2023-05-15T01:35:39.391Z,0.51
2023-05-15T01:36:39.440Z,0.51
2023-05-15T01:37:38.488Z,0.51
2023-05-15T01:38:38.546Z,0.51
2023-05-15T01:39:39.582Z,0.50
2023-05-15T01:40:39.623Z,0.50
2023-05-15T01:41:38.677Z,0.50
2023-05-15T01:42:39.720Z,0.50
2023-05-15T01:43:39.779Z,0.50
2023-05-15T01:44:39.816Z,0.51
2023-05-15T01:45:39.892Z,0.51
2023-05-15T01:46:40.002Z,0.51
2023-05-15T01:47:39.981Z,0.50
2023-05-15T01:48:40.018Z,0.51
2023-05-15T01:49:40.063Z,0.50
2023-05-15T01:50:39.104Z,0.51
2023-05-15T01:51:40.159Z,0.50
2023-05-15T01:52:40.211Z,0.50
2023-05-15T01:53:40.298Z,0.51
2023-05-15T01:54:39.290Z,0.51
2023-05-15T01:55:39.334Z,0.50
2023-05-15T01:56:40.377Z,0.51
2023-05-15T01:57:40.415Z,0.51
2023-05-15T01:58:40.466Z,0.51
2023-05-15T01:59:40.536Z,0.51
2023-05-15T02:00:39.563Z,0.51
2023-05-15T02:01:40.730Z,0.51
2023-05-15T02:02:39.693Z,0.51
2023-05-15T02:03:39.776Z,0.51
2023-05-15T02:04:40.732Z,0.50
2023-05-15T02:05:39.780Z,0.50
2023-05-15T02:06:40.825Z,0.50
2023-05-15T02:07:39.882Z,0.51
2023-05-15T02:08:40.920Z,0.51
2023-05-15T02:09:39.973Z,0.50
2023-05-15T02:10:40.021Z,0.51
2023-05-15T02:11:40.092Z,0.51
2023-05-15T02:12:40.138Z,0.50
2023-05-15T02:13:40.170Z,0.51
2023-05-15T02:14:41.228Z,0.50
2023-05-15T02:15:40.267Z,0.50
2023-05-15T02:16:41.426Z,0.50
2023-05-15T02:17:41.409Z,0.51
2023-05-15T02:18:40.460Z,0.51
2023-05-15T02:19:40.469Z,0.51
2023-05-15T02:20:40.513Z,0.51
2023-05-15T02:21:41.561Z,0.51
2023-05-15T02:22:40.603Z,0.51
2023-05-15T02:23:41.662Z,0.50
2023-05-15T02:24:40.705Z,0.50
2023-05-15T02:25:41.765Z,0.51
2023-05-15T02:26:40.801Z,0.50
2023-05-15T02:27:41.848Z,0.51
2023-05-15T02:28:40.903Z,0.51
2023-05-15T02:29:41.961Z,0.51
2023-05-15T02:30:40.987Z,0.50
2023-05-15T02:31:42.070Z,0.50
2023-05-15T02:32:41.103Z,0.51
2023-05-15T02:33:42.168Z,0.50
2023-05-15T02:34:41.184Z,0.51
2023-05-15T02:35:42.238Z,0.51
2023-05-15T02:36:42.274Z,0.51
2023-05-15T02:37:41.328Z,0.51
2023-05-15T02:38:41.395Z,0.51
2023-05-15T02:39:41.422Z,0.51
2023-05-15T02:40:41.479Z,0.51
2023-05-15T02:41:42.524Z,0.50
2023-05-15T02:42:42.582Z,0.51
2023-05-15T02:43:41.625Z,0.51
2023-05-15T02:44:41.662Z,0.51
2023-05-15T02:45:41.725Z,0.50
2023-05-15T02:46:42.764Z,0.51
2023-05-15T02:47:41.891Z,0.51
2023-05-15T02:48:41.895Z,0.51
2023-05-15T02:49:41.949Z,0.51
2023-05-15T02:50:42.969Z,0.51
2023-05-15T02:51:42.040Z,0.51
2023-05-15T02:52:42.071Z,0.51
2023-05-15T02:53:42.132Z,0.51
2023-05-15T02:54:42.164Z,0.51
2023-05-15T02:55:42.241Z,0.51
2023-05-15T02:56:42.270Z,0.51
2023-05-15T02:57:43.317Z,0.50
2023-05-15T02:58:43.385Z,0.51
2023-05-15T02:59:42.424Z,0.51
2023-05-15T03:00:43.452Z,0.51
2023-05-15T03:01:42.526Z,0.50
2023-05-15T03:02:43.577Z,0.51
2023-05-15T03:03:42.615Z,0.50
2023-05-15T03:04:43.837Z,0.50
2023-05-15T03:05:43.675Z,0.50
2023-05-15T03:06:43.712Z,0.51
2023-05-15T03:07:42.753Z,0.51
2023-05-15T03:08:42.836Z,0.50
2023-05-15T03:09:42.857Z,0.51
2023-05-15T03:10:43.296Z,0.51
2023-05-15T03:11:43.985Z,0.51
2023-05-15T03:12:43.007Z,0.51
2023-05-15T03:13:44.065Z,0.50
2023-05-15T03:14:43.093Z,0.50
2023-05-15T03:15:44.149Z,0.51
2023-05-15T03:16:43.239Z,0.50
2023-05-15T03:17:43.289Z,0.51
2023-05-15T03:18:44.334Z,0.51
2023-05-15T03:19:43.336Z,0.51
2023-05-15T03:20:44.423Z,0.51
2023-05-15T03:21:44.426Z,0.51
2023-05-15T03:22:44.497Z,0.51
2023-05-15T03:23:43.535Z,0.50
2023-05-15T03:24:43.571Z,0.50
2023-05-15T03:25:43.626Z,0.51
2023-05-15T03:26:43.690Z,0.51
2023-05-15T03:27:44.717Z,0.51
2023-05-15T03:28:44.793Z,0.51
2023-05-15T03:29:44.847Z,0.51
2023-05-15T03:30:44.908Z,0.51
2023-05-15T03:31:45.007Z,0.51
2023-05-15T03:32:45.005Z,0.51
2023-05-15T03:33:45.072Z,0.51
2023-05-15T03:34:44.089Z,0.50
2023-05-15T03:35:45.170Z,0.51
2023-05-15T03:36:45.211Z,0.50
2023-05-15T03:37:45.252Z,0.51
2023-05-15T03:38:45.309Z,0.51
2023-05-15T03:39:45.359Z,0.51
2023-05-15T03:40:44.409Z,0.51
2023-05-15T03:41:45.458Z,0.51
2023-05-15T03:42:44.515Z,0.52
2023-05-15T03:43:45.573Z,0.51
2023-05-15T03:44:45.653Z,0.51
2023-05-15T03:45:45.705Z,0.51
2023-05-15T03:46:44.751Z,0.51
2023-05-15T03:47:44.814Z,0.51
2023-05-15T03:48:45.849Z,0.51
2023-05-15T03:49:44.932Z,0.51
2023-05-15T03:50:44.979Z,0.51
2023-05-15T03:51:46.002Z,0.51
2023-05-15T03:52:45.229Z,0.51
2023-05-15T03:53:46.118Z,0.51
2023-05-15T03:54:46.178Z,0.51
2023-05-15T03:55:45.239Z,0.51
2023-05-15T03:56:46.301Z,0.51
2023-05-15T03:57:46.356Z,0.51
2023-05-15T03:58:45.445Z,0.51
2023-05-15T03:59:46.469Z,0.51
2023-05-15T04:00:46.551Z,0.51
2023-05-15T04:02:02.839Z,0.51
2023-05-15T04:02:46.628Z,0.51
2023-05-15T04:03:45.572Z,0.51
2023-05-15T04:04:46.596Z,0.52
2023-05-15T04:05:46.577Z,0.52
2023-05-15T04:06:46.554Z,0.52
2023-05-15T04:07:45.570Z,0.51
2023-05-15T04:08:45.573Z,0.51
2023-05-15T04:09:46.534Z,0.51
2023-05-15T04:10:45.524Z,0.52
2023-05-15T04:11:46.531Z,0.51
2023-05-15T04:12:46.511Z,0.51
2023-05-15T04:13:46.501Z,0.52
2023-05-15T04:14:46.489Z,0.51
2023-05-15T04:15:46.483Z,0.51
2023-05-15T04:16:46.578Z,0.51
2023-05-15T04:17:45.531Z,0.51
2023-05-15T04:18:46.503Z,0.51
2023-05-15T04:19:46.462Z,0.51
2023-05-15T04:20:46.447Z,0.51
2023-05-15T04:21:45.446Z,0.50
2023-05-15T04:22:46.439Z,0.51
2023-05-15T04:23:45.446Z,0.50
2023-05-15T04:24:45.444Z,0.51
2023-05-15T04:25:45.490Z,0.51
2023-05-15T04:26:45.565Z,0.51
2023-05-15T04:27:45.551Z,0.51
2023-05-15T04:28:56.250Z,0.51
2023-05-15T04:29:46.600Z,0.51
2023-05-15T04:30:45.597Z,0.52
2023-05-15T04:31:45.694Z,0.51
2023-05-15T04:32:46.632Z,0.51
2023-05-15T04:33:45.571Z,0.51
2023-05-15T04:34:45.585Z,0.50
2023-05-15T04:35:46.560Z,0.51
2023-05-15T04:36:46.564Z,0.51
2023-05-15T04:37:45.788Z,0.51
2023-05-15T04:38:45.559Z,0.51
2023-05-15T04:39:46.535Z,0.51
2023-05-15T04:40:46.560Z,0.51
2023-05-15T04:41:45.527Z,0.51
2023-05-15T04:42:46.517Z,0.51
2023-05-15T04:43:45.512Z,0.51
2023-05-15T04:44:45.519Z,0.51
2023-05-15T04:45:45.527Z,0.51
2023-05-15T04:46:46.476Z,0.51
2023-05-15T04:47:45.475Z,0.51
2023-05-15T04:48:46.476Z,0.51
2023-05-15T04:49:46.461Z,0.51
2023-05-15T04:50:46.440Z,0.51
2023-05-15T04:51:46.442Z,0.51
2023-05-15T04:52:46.438Z,0.51
2023-05-15T04:53:45.440Z,0.51
2023-05-15T04:54:46.422Z,0.51
2023-05-15T04:55:46.433Z,0.51
2023-05-15T04:56:45.529Z,0.51
2023-05-15T04:57:46.508Z,0.51
2023-05-15T04:58:46.577Z,0.52
2023-05-15T04:59:46.608Z,0.51
2023-05-15T05:00:46.682Z,0.52
2023-05-15T05:01:45.764Z,0.55
2023-05-15T05:02:46.875Z,0.61
2023-05-15T05:03:46.871Z,0.62
2023-05-15T05:04:46.794Z,0.65
2023-05-15T05:05:46.855Z,0.66
2023-05-15T05:06:45.916Z,0.68
2023-05-15T05:07:45.924Z,0.69
2023-05-15T05:08:46.987Z,0.70
2023-05-15T05:09:47.069Z,0.70
2023-05-15T05:10:46.115Z,0.71
2023-05-15T05:11:47.166Z,0.71
2023-05-15T05:12:46.228Z,0.72
2023-05-15T05:13:47.260Z,0.73
2023-05-15T05:14:46.299Z,0.73
2023-05-15T05:15:47.360Z,0.73
2023-05-15T05:16:47.399Z,0.72
2023-05-15T05:17:47.465Z,0.73
2023-05-15T05:18:47.519Z,0.71
2023-05-15T05:19:47.536Z,0.72
2023-05-15T05:20:46.621Z,0.74
2023-05-15T05:21:47.673Z,0.72
2023-05-15T05:22:47.747Z,0.72
2023-05-15T05:23:47.781Z,0.78
2023-05-15T05:24:47.867Z,0.76
2023-05-15T05:25:46.913Z,0.74
2023-05-15T05:26:47.965Z,0.75
2023-05-15T05:27:46.999Z,0.72
2023-05-15T05:28:47.060Z,0.70
2023-05-15T05:29:47.076Z,0.69
2023-05-15T05:30:47.108Z,0.70
2023-05-15T05:31:47.205Z,0.70
2023-05-15T05:32:48.236Z,0.71
2023-05-15T05:33:48.238Z,0.71
2023-05-15T05:34:48.230Z,0.76
2023-05-15T05:35:48.253Z,0.76
2023-05-15T05:36:48.266Z,0.79
2023-05-15T05:37:47.287Z,0.79
2023-05-15T05:38:48.311Z,0.80
2023-05-15T05:39:48.313Z,0.85
2023-05-15T05:40:48.357Z,0.83
2023-05-15T05:41:48.390Z,0.87
2023-05-15T05:42:47.396Z,0.88
2023-05-15T05:43:47.418Z,0.89
2023-05-15T05:44:48.560Z,0.89
2023-05-15T05:45:47.486Z,0.98
2023-05-15T05:46:47.565Z,0.98
2023-05-15T05:47:47.586Z,1.08
2023-05-15T05:48:48.614Z,1.00
2023-05-15T05:49:47.637Z,1.12
2023-05-15T05:50:48.704Z,1.11
2023-05-15T05:51:48.761Z,1.04
2023-05-15T05:52:48.798Z,1.02
2023-05-15T05:53:48.843Z,0.95
2023-05-15T05:54:48.915Z,0.87
2023-05-15T05:55:48.909Z,0.84
2023-05-15T05:56:48.945Z,0.87
2023-05-15T05:57:49.016Z,0.91
2023-05-15T05:58:49.089Z,0.96
2023-05-15T05:59:49.062Z,1.01
2023-05-15T06:00:49.161Z,1.01
2023-05-15T06:01:49.173Z,1.08
2023-05-15T06:02:49.406Z,1.14
2023-05-15T06:03:49.521Z,1.01
2023-05-15T06:04:49.268Z,0.88
2023-05-15T06:05:48.280Z,0.86
2023-05-15T06:06:48.285Z,0.89
2023-05-15T06:07:48.295Z,0.91
2023-05-15T06:08:49.308Z,0.91
2023-05-15T06:09:49.286Z,0.92
2023-05-15T06:10:48.281Z,0.88
2023-05-15T06:11:49.295Z,0.88
2023-05-15T06:12:48.298Z,0.88
2023-05-15T06:13:49.270Z,0.88
2023-05-15T06:14:49.255Z,0.85
2023-05-15T06:15:49.276Z,0.91
2023-05-15T06:16:49.453Z,0.87
2023-05-15T06:17:49.434Z,0.91
2023-05-15T06:18:49.477Z,0.93
2023-05-15T06:19:49.481Z,0.94
2023-05-15T06:20:48.539Z,0.93
2023-05-15T06:21:49.590Z,0.91
2023-05-15T06:22:49.677Z,0.92
2023-05-15T06:23:49.799Z,0.92
2023-05-15T06:24:48.777Z,0.94
2023-05-15T06:25:49.845Z,0.92
2023-05-15T06:26:50.593Z,0.93
2023-05-15T06:27:48.908Z,0.97
2023-05-15T06:28:49.895Z,0.94
2023-05-15T06:29:48.873Z,0.87
2023-05-15T06:30:48.991Z,0.90
2023-05-15T06:31:49.865Z,0.90
2023-05-15T06:32:48.899Z,0.87
2023-05-15T06:33:49.891Z,0.88
2023-05-15T06:34:48.852Z,0.87
2023-05-15T06:35:48.842Z,0.85
2023-05-15T06:36:49.813Z,0.87
2023-05-15T06:37:48.813Z,0.85
2023-05-15T06:38:49.824Z,0.84
2023-05-15T06:39:48.792Z,0.82
2023-05-15T06:40:48.845Z,0.80
2023-05-15T06:41:49.779Z,0.82
2023-05-15T06:42:48.768Z,0.79
2023-05-15T06:43:48.770Z,0.85
2023-05-15T06:44:49.773Z,0.87
2023-05-15T06:45:48.797Z,0.84
2023-05-15T06:46:49.830Z,0.84
2023-05-15T06:47:49.802Z,0.87
2023-05-15T06:48:49.812Z,0.85
2023-05-15T06:49:48.746Z,0.84
2023-05-15T06:50:48.747Z,0.82
2023-05-15T06:51:49.720Z,0.84
2023-05-15T06:52:48.730Z,0.84
2023-05-15T06:53:49.695Z,0.86
2023-05-15T06:54:49.921Z,0.76
2023-05-15T06:55:48.693Z,0.76
2023-05-15T06:56:48.686Z,0.63
2023-05-15T06:57:49.680Z,0.65
2023-05-15T06:58:49.666Z,0.74
2023-05-15T06:59:49.678Z,0.75
2023-05-15T07:00:49.644Z,0.84
2023-05-15T07:01:48.689Z,0.87
2023-05-15T07:02:49.689Z,0.92
2023-05-15T07:03:49.648Z,0.95
2023-05-15T07:04:49.880Z,1.00
2023-05-15T07:05:49.640Z,1.07
2023-05-15T07:06:48.616Z,1.08
2023-05-15T07:07:48.604Z,1.11
2023-05-15T07:08:49.600Z,1.15
2023-05-15T07:09:49.616Z,1.21
2023-05-15T07:10:48.597Z,1.26
2023-05-15T07:11:48.592Z,1.30
2023-05-15T07:12:48.607Z,1.34
2023-05-15T07:13:50.808Z,1.38
2023-05-15T07:14:48.566Z,1.40
2023-05-15T07:15:49.548Z,1.42
2023-05-15T07:16:49.594Z,1.49
2023-05-15T07:17:49.674Z,1.47
2023-05-15T07:18:48.667Z,1.48
2023-05-15T07:19:48.532Z,1.56
2023-05-15T07:20:49.553Z,1.56
2023-05-15T07:21:48.496Z,1.66
2023-05-15T07:22:56.391Z,1.62
2023-05-15T07:23:49.518Z,1.63
2023-05-15T07:24:49.479Z,1.65
2023-05-15T07:25:49.464Z,1.70
2023-05-15T07:26:58.297Z,1.77
2023-05-15T07:27:49.469Z,1.63
2023-05-15T07:28:48.447Z,1.67
2023-05-15T07:29:48.437Z,1.73
2023-05-15T07:30:49.427Z,1.85
2023-05-15T07:31:49.473Z,2.03
2023-05-15T07:32:49.493Z,2.07
2023-05-15T07:33:49.439Z,2.12
2023-05-15T07:34:49.396Z,2.09
2023-05-15T07:35:49.400Z,2.20
2023-05-15T07:36:48.511Z,2.20
2023-05-15T07:37:49.549Z,2.24
2023-05-15T07:38:49.610Z,2.32
2023-05-15T07:39:48.762Z,2.39
2023-05-15T07:40:49.711Z,2.38
2023-05-15T07:41:49.783Z,2.45
2023-05-15T07:42:49.822Z,2.38
2023-05-15T07:43:49.892Z,2.46
2023-05-15T07:44:49.654Z,2.41
2023-05-15T07:45:50.070Z,2.49
2023-05-15T07:46:49.086Z,2.50
2023-05-15T07:47:50.148Z,2.71
2023-05-15T07:48:50.166Z,2.64
2023-05-15T07:49:50.437Z,2.47
2023-05-15T07:50:50.285Z,2.38
2023-05-15T07:51:50.349Z,2.26
2023-05-15T07:52:49.416Z,2.12
2023-05-15T07:53:50.418Z,2.24
2023-05-15T07:54:50.462Z,2.32
2023-05-15T07:55:49.516Z,2.25
2023-05-15T07:56:49.490Z,2.13
2023-05-15T07:57:53.461Z,2.12
2023-05-15T07:58:49.500Z,2.12
2023-05-15T07:59:49.479Z,2.13
2023-05-15T08:00:50.466Z,2.12
2023-05-15T08:01:49.456Z,2.12
2023-05-15T08:02:49.525Z,2.11
2023-05-15T08:03:50.543Z,2.09
2023-05-15T08:04:49.471Z,2.10
2023-05-15T08:05:50.426Z,2.14
2023-05-15T08:06:49.426Z,2.17
2023-05-15T08:07:50.413Z,2.24
2023-05-15T08:08:49.430Z,2.29
2023-05-15T08:09:50.436Z,2.36
2023-05-15T08:10:50.411Z,2.36
2023-05-15T08:11:50.376Z,2.41
2023-05-15T08:12:50.374Z,2.39
2023-05-15T08:13:50.400Z,2.45
2023-05-15T08:14:49.384Z,2.47
2023-05-15T08:15:50.404Z,2.56
2023-05-15T08:16:49.361Z,2.59
2023-05-15T08:17:50.417Z,2.54
2023-05-15T08:18:50.429Z,2.61
2023-05-15T08:19:50.355Z,2.73
2023-05-15T08:20:50.339Z,2.79
2023-05-15T08:21:49.308Z,2.80
2023-05-15T08:22:49.323Z,2.87
2023-05-15T08:23:50.308Z,2.88
2023-05-15T08:24:49.338Z,2.93
2023-05-15T08:25:50.292Z,2.91
2023-05-15T08:26:50.282Z,2.82
2023-05-15T08:27:50.270Z,2.79
2023-05-15T08:28:49.282Z,2.83
2023-05-15T08:29:50.306Z,2.94
2023-05-15T08:30:50.423Z,2.93
2023-05-15T08:31:49.530Z,3.01
2023-05-15T08:32:50.464Z,3.04
2023-05-15T08:33:49.476Z,3.14
2023-05-15T08:34:50.488Z,3.14
2023-05-15T08:35:50.527Z,3.20
2023-05-15T08:36:50.523Z,3.14
2023-05-15T08:37:49.546Z,3.19
2023-05-15T08:38:50.597Z,3.15
2023-05-15T08:39:50.637Z,3.28
2023-05-15T08:40:49.679Z,3.34
2023-05-15T08:41:50.667Z,3.23
2023-05-15T08:42:50.708Z,3.22
2023-05-15T08:43:49.737Z,2.47
2023-05-15T08:44:50.789Z,2.58
2023-05-15T08:45:50.838Z,1.82
2023-05-15T08:46:50.929Z,1.85
2023-05-15T08:47:50.976Z,1.64
2023-05-15T08:48:49.984Z,1.45
2023-05-15T08:49:50.084Z,1.51
2023-05-15T08:50:50.066Z,1.47
2023-05-15T08:51:51.082Z,1.47
2023-05-15T08:52:50.128Z,1.23
2023-05-15T08:53:51.189Z,0.96
2023-05-15T08:54:50.274Z,0.95
2023-05-15T08:55:51.275Z,0.94
2023-05-15T08:56:50.267Z,0.96
2023-05-15T08:57:51.276Z,0.98
2023-05-15T08:58:50.259Z,1.04
2023-05-15T08:59:50.274Z,0.94
2023-05-15T09:00:50.283Z,0.86
2023-05-15T09:01:51.348Z,0.77
2023-05-15T09:02:51.441Z,0.75
2023-05-15T09:03:50.312Z,0.75
2023-05-15T09:04:50.276Z,0.74
2023-05-15T09:05:51.384Z,0.69
2023-05-15T09:06:51.315Z,0.61
2023-05-15T09:07:51.309Z,0.54
2023-05-15T09:08:50.345Z,0.50
2023-05-15T09:09:50.358Z,0.54
2023-05-15T09:10:51.396Z,0.54
2023-05-15T09:11:51.502Z,0.55
2023-05-15T09:12:51.500Z,0.57
2023-05-15T09:13:51.504Z,0.63
2023-05-15T09:14:51.554Z,0.56
2023-05-15T09:15:51.620Z,0.50
2023-05-15T09:16:50.651Z,0.52
2023-05-15T09:17:51.680Z,0.50
2023-05-15T09:18:51.739Z,0.61
2023-05-15T09:19:51.734Z,0.69
2023-05-15T09:20:50.756Z,0.76
2023-05-15T09:21:51.838Z,0.77
2023-05-15T09:22:50.816Z,0.76
2023-05-15T09:23:51.793Z,0.80
2023-05-15T09:24:51.823Z,0.83
2023-05-15T09:25:51.794Z,0.86
2023-05-15T09:26:51.866Z,0.94
2023-05-15T09:27:50.900Z,1.02
2023-05-15T09:28:52.022Z,1.09
2023-05-15T09:29:52.024Z,1.14
2023-05-15T09:30:51.078Z,1.22
2023-05-15T09:31:52.198Z,1.29
2023-05-15T09:32:53.076Z,1.39
2023-05-15T09:33:52.174Z,1.38
2023-05-15T09:34:52.214Z,1.48
2023-05-15T09:35:52.263Z,1.55
2023-05-15T09:36:52.294Z,1.61
2023-05-15T09:37:52.311Z,1.72
2023-05-15T09:38:52.358Z,1.74
2023-05-15T09:39:52.385Z,1.93
2023-05-15T09:40:51.388Z,2.00
2023-05-15T09:41:52.390Z,2.05
2023-05-15T09:42:51.423Z,2.01
2023-05-15T09:43:52.441Z,2.13
2023-05-15T09:44:51.499Z,2.21
2023-05-15T09:45:52.504Z,2.37
2023-05-15T09:46:52.564Z,2.60
2023-05-15T09:47:52.566Z,2.73
2023-05-15T09:48:51.521Z,2.75
2023-05-15T09:49:52.560Z,2.58
2023-05-15T09:50:51.971Z,2.46
2023-05-15T09:51:52.584Z,2.43
2023-05-15T09:52:52.651Z,2.34
2023-05-15T09:53:51.665Z,2.28
2023-05-15T09:54:51.720Z,2.24
2023-05-15T09:55:51.754Z,2.22
2023-05-15T09:56:52.817Z,2.22
2023-05-15T09:57:52.863Z,2.20
2023-05-15T09:58:52.934Z,2.20
2023-05-15T09:59:52.020Z,2.22
2023-05-15T10:00:53.058Z,2.19
2023-05-15T10:01:53.148Z,2.20
2023-05-15T10:02:52.146Z,2.16
2023-05-15T10:03:53.110Z,2.14
2023-05-15T10:04:53.163Z,2.16
2023-05-15T10:05:52.193Z,2.15
2023-05-15T10:06:52.136Z,2.12
2023-05-15T10:07:52.106Z,2.15
2023-05-15T10:08:52.116Z,2.13
2023-05-15T10:09:53.110Z,2.12
2023-05-15T10:10:52.141Z,2.14
2023-05-15T10:11:53.132Z,2.08
2023-05-15T10:12:53.121Z,2.07
2023-05-15T10:13:52.155Z,2.09
2023-05-15T10:14:52.138Z,2.06
2023-05-15T10:15:53.292Z,2.05
2023-05-15T10:16:52.190Z,2.02
2023-05-15T10:17:53.200Z,2.00
2023-05-15T10:18:52.197Z,1.96
2023-05-15T10:20:52.165Z,1.91
2023-05-15T10:21:53.181Z,1.91
2023-05-15T10:22:53.162Z,1.91
2023-05-15T10:23:52.141Z,1.93
2023-05-15T10:24:52.151Z,1.94
2023-05-15T10:25:52.130Z,1.94
2023-05-15T10:26:53.139Z,1.91
2023-05-15T10:27:53.143Z,1.92
2023-05-15T10:28:52.122Z,1.90
2023-05-15T10:29:52.119Z,1.89
2023-05-15T10:30:53.120Z,1.88
2023-05-15T10:31:53.188Z,1.87
2023-05-15T10:32:52.174Z,1.85
2023-05-15T10:33:53.086Z,1.87
2023-05-15T10:34:53.072Z,1.88
2023-05-15T10:35:53.067Z,1.82
2023-05-15T10:36:53.068Z,1.81
2023-05-15T10:37:53.064Z,1.84
2023-05-15T10:38:53.082Z,1.80
2023-05-15T10:39:52.062Z,1.86
2023-05-15T10:40:59.820Z,1.87
2023-05-15T10:41:53.496Z,1.88
2023-05-15T10:42:53.017Z,1.89
2023-05-15T10:43:53.083Z,1.88
2023-05-15T10:44:52.996Z,1.90
2023-05-15T10:45:53.011Z,1.93
2023-05-15T10:46:53.075Z,1.87
2023-05-15T10:47:53.042Z,1.86
2023-05-15T10:48:53.004Z,1.80
2023-05-15T10:49:51.969Z,1.84
2023-05-15T10:50:51.963Z,1.80
2023-05-15T10:51:52.946Z,1.77
2023-05-15T10:52:52.957Z,1.78
2023-05-15T10:53:51.935Z,1.75
2023-05-15T10:54:51.940Z,1.74
2023-05-15T10:55:52.962Z,1.77
2023-05-15T10:56:52.487Z,1.70
2023-05-15T10:57:52.919Z,1.71
2023-05-15T10:58:51.896Z,1.72
2023-05-15T10:59:52.901Z,1.67
2023-05-15T11:00:51.926Z,1.72
2023-05-15T11:01:52.871Z,1.71
2023-05-15T11:02:52.886Z,1.65
2023-05-15T11:03:54.664Z,1.69
2023-05-15T11:04:52.873Z,1.67
2023-05-15T11:05:52.868Z,1.70
2023-05-15T11:06:52.835Z,1.66
2023-05-15T11:07:51.818Z,1.63
2023-05-15T11:08:52.810Z,1.68
2023-05-15T11:09:52.805Z,1.65
2023-05-15T11:10:51.801Z,1.60
2023-05-15T11:11:52.902Z,1.63
2023-05-15T11:12:52.788Z,1.63
2023-05-15T11:13:52.781Z,1.60
2023-05-15T11:14:51.791Z,1.60
2023-05-15T11:15:52.760Z,1.58
2023-05-15T11:16:51.779Z,1.62
2023-05-15T11:17:52.786Z,1.58
2023-05-15T11:18:51.780Z,1.61
2023-05-15T11:19:52.723Z,1.56
2023-05-15T11:20:52.758Z,1.57
2023-05-15T11:21:52.742Z,1.55
2023-05-15T11:22:52.707Z,1.56
2023-05-15T11:23:52.695Z,1.55
2023-05-15T11:24:52.720Z,1.51
2023-05-15T11:25:51.699Z,1.55
2023-05-15T11:26:51.691Z,1.51
2023-05-15T11:27:52.683Z,1.52
2023-05-15T11:28:51.678Z,1.52
2023-05-15T11:29:52.684Z,1.53
2023-05-15T11:30:52.714Z,1.53
2023-05-15T11:31:51.663Z,1.58
2023-05-15T11:32:52.723Z,1.48
2023-05-15T11:33:52.701Z,1.49
2023-05-15T11:34:51.633Z,1.48
2023-05-15T11:35:51.632Z,1.49
2023-05-15T11:36:51.641Z,1.47
2023-05-15T11:37:51.622Z,1.46
2023-05-15T11:38:52.725Z,1.50
2023-05-15T11:39:52.589Z,1.50
2023-05-15T11:40:52.670Z,1.50
2023-05-15T11:41:52.616Z,1.48
2023-05-15T11:42:52.602Z,1.47
2023-05-15T11:43:52.584Z,1.45
2023-05-15T11:44:52.571Z,1.37
2023-05-15T11:45:51.572Z,1.23
2023-05-15T11:46:51.596Z,1.28
2023-05-15T11:48:51.533Z,1.27
2023-05-15T11:49:52.528Z,1.13
2023-05-15T11:50:52.524Z,1.15
2023-05-15T11:51:52.509Z,1.21
2023-05-15T11:52:51.544Z,1.26
2023-05-15T11:53:52.487Z,1.21
2023-05-15T11:54:51.490Z,1.15
2023-05-15T11:55:52.513Z,1.03
2023-05-15T11:56:51.481Z,1.05
2023-05-15T11:57:52.483Z,1.04
2023-05-15T11:58:52.478Z,0.98
2023-05-15T11:59:52.443Z,1.02
2023-05-15T12:00:51.517Z,0.98
2023-05-15T12:01:52.531Z,0.99
2023-05-15T12:02:52.668Z,0.99
2023-05-15T12:03:52.789Z,0.94
2023-05-15T12:04:52.812Z,0.87
2023-05-15T12:05:58.219Z,0.91
2023-05-15T12:06:52.723Z,0.91
2023-05-15T12:07:51.690Z,0.91
2023-05-15T12:08:51.716Z,0.87
2023-05-15T12:09:52.706Z,0.84
2023-05-15T12:10:52.671Z,0.85
2023-05-15T12:11:51.704Z,0.85
2023-05-15T12:12:52.671Z,0.80
2023-05-15T12:13:52.658Z,0.77
2023-05-15T12:14:51.654Z,0.75
2023-05-15T12:15:51.664Z,0.79
2023-05-15T12:16:51.722Z,0.77
2023-05-15T12:17:51.787Z,0.78
2023-05-15T12:18:52.795Z,0.79
2023-05-15T12:19:52.747Z,0.80
2023-05-15T12:20:52.828Z,0.78
2023-05-15T12:21:51.856Z,0.74
2023-05-15T12:22:51.937Z,0.78
2023-05-15T12:24:03.370Z,0.74
2023-05-15T12:24:53.080Z,0.74
2023-05-15T12:25:53.025Z,0.75
2023-05-15T12:26:54.031Z,0.73
2023-05-15T12:27:52.052Z,0.81
2023-05-15T12:28:52.071Z,0.75
2023-05-15T12:29:53.030Z,0.71
2023-05-15T12:30:53.035Z,0.74
2023-05-15T12:31:52.031Z,0.73
2023-05-15T12:32:52.062Z,0.73
2023-05-15T12:33:52.001Z,0.69
2023-05-15T12:34:53.005Z,0.68
2023-05-15T12:35:53.003Z,0.74
2023-05-15T12:36:52.976Z,0.68
2023-05-15T12:37:53.004Z,0.69
2023-05-15T12:38:52.971Z,0.68
2023-05-15T12:39:51.966Z,0.65
2023-05-15T12:40:52.985Z,0.61
2023-05-15T12:41:52.941Z,0.60
2023-05-15T12:42:52.958Z,0.69
2023-05-15T12:43:51.932Z,0.66
2023-05-15T12:44:51.939Z,0.62
2023-05-15T12:45:52.992Z,0.62
2023-05-15T12:46:52.914Z,0.68
2023-05-15T12:47:51.979Z,0.59
2023-05-15T12:48:52.906Z,0.60
2023-05-15T12:49:52.884Z,0.56
2023-05-15T12:50:52.895Z,0.61
2023-05-15T12:51:52.911Z,0.53
2023-05-15T12:52:51.931Z,0.57
2023-05-15T12:53:52.973Z,0.58
2023-05-15T12:54:52.020Z,0.58
2023-05-15T12:55:51.994Z,0.55
2023-05-15T12:56:53.029Z,0.55
2023-05-15T12:57:52.052Z,0.54
2023-05-15T12:58:53.001Z,0.54
2023-05-15T12:59:51.993Z,0.56
2023-05-15T13:00:52.978Z,0.54
2023-05-15T13:01:53.080Z,0.54
2023-05-15T13:02:53.055Z,0.52
2023-05-15T13:03:52.215Z,0.52
2023-05-15T13:04:52.986Z,0.52
2023-05-15T13:05:52.008Z,0.52
2023-05-15T13:06:51.994Z,0.50
2023-05-15T13:07:52.996Z,0.52
2023-05-15T13:08:53.005Z,0.51
2023-05-15T13:09:52.016Z,0.50
2023-05-15T13:10:53.014Z,0.51
2023-05-15T13:11:53.025Z,0.51
2023-05-15T13:12:53.057Z,0.51
2023-05-15T13:13:52.034Z,0.53
2023-05-15T13:14:52.052Z,0.55
2023-05-15T13:15:53.151Z,0.54
2023-05-15T13:16:53.056Z,0.55
2023-05-15T13:17:52.196Z,0.57
2023-05-15T13:18:52.189Z,0.60
2023-05-15T13:19:53.074Z,0.61
2023-05-15T13:20:53.065Z,0.59